< < Back
Terminal Aerodrome Forecast


Current Version              Previous Versions:   1  2  3  4  5  6  7  8  9  

Terminal Aerodrome Forecast

565
FTUS42 KFFC 021120
TAFATL
TAF
KATL 021120Z 0212/0318 30003KT P6SM FEW050 SCT250
     FM021500 30004KT P6SM SCT035 SCT250
     FM021800 31006KT P6SM BKN045
     FM030000 30005KT P6SM SCT050 BKN200
     FM031500 34005KT P6SM SCT050 BKN180=



Latest METAR

969
SAUS70 KWBC 021300 RRH
MTRATL
METAR KATL 021252Z 00000KT 10SM FEW012 SCT150 SCT250 25/21 A3014 RMK AO2
SLP195 T02500206


USA.gov is the U.S. government's official web portal to all federal, state and local government web resources and services.